Time;durP1;ratioP1;P1;durP2;ratioP2;P2;SDS_P1;SDS_P2;PMS_P1;PMS_P2;Temp;Humidity;BMP_temperature;BMP_pressure;BME280_temperature;BME280_humidity;BME280_pressure;Samples;Min_cycle;Max_cycle;Signal;HPM_P1;HPM_P2
2023/02/21 02:18:45;;;;;;;6.2;2.4;;;;;;;10.2;68.8;98020;;;;
2023/02/21 02:28:45;;;;;;;5.1;2.7;;;;;;;10.1;69.1;98020;;;;
2023/02/21 02:38:45;;;;;;;5.1;2.7;;;;;;;10.1;69.6;98020;;;;
2023/02/21 02:48:45;;;;;;;5.1;2.7;;;;;;;10;70.3;98010;;;;
2023/02/21 02:59:45;;;;;;;5.7;3.3;;;;;;;9.9;72;98030;;;;
2023/02/21 03:09:45;;;;;;;5.7;3.3;;;;;;;9.7;74.4;98020;;;;
2023/02/21 03:19:45;;;;;;;5.7;3.3;;;;;;;9.5;75.6;98020;;;;
2023/02/21 03:29:45;;;;;;;6.8;2.8;;;;;;;9.5;76.4;98020;;;;
2023/02/21 03:39:45;;;;;;;6.8;2.8;;;;;;;9.2;79;98030;;;;
2023/02/21 03:50:45;;;;;;;6.8;2.8;;;;;;;9.1;79.8;98020;;;;
2023/02/21 04:01:45;;;;;;;8.4;2.9;;;;;;;8.8;82.2;98040;;;;
2023/02/21 04:11:45;;;;;;;8.4;2.9;;;;;;;8.7;83;98040;;;;
2023/02/21 04:22:45;;;;;;;8.4;2.9;;;;;;;8.6;84.3;98040;;;;
2023/02/21 04:33:45;;;;;;;5.9;3.1;;;;;;;8.5;84.1;98040;;;;
2023/02/21 04:44:45;;;;;;;5.9;3.1;;;;;;;8.5;84.4;98050;;;;
2023/02/21 04:54:45;;;;;;;5.9;3.1;;;;;;;8.4;84.5;98040;;;;
2023/02/21 05:04:45;;;;;;;7.4;3.6;;;;;;;8.2;87.2;98060;;;;
2023/02/21 05:14:45;;;;;;;7.4;3.6;;;;;;;8;88.7;98070;;;;
2023/02/21 05:24:46;;;;;;;7.4;3.6;;;;;;;7.9;90;98070;;;;
2023/02/21 05:35:46;;;;;;;5.4;3.2;;;;;;;7.7;90.7;98060;;;;
2023/02/21 05:45:45;;;;;;;5.4;3.2;;;;;;;7.7;91;98060;;;;
2023/02/21 05:56:45;;;;;;;8.7;3.8;;;;;;;7.7;91.4;98060;;;;
2023/02/21 06:06:45;;;;;;;8.7;3.8;;;;;;;7.7;91.5;98080;;;;
2023/02/21 06:17:45;;;;;;;8.7;3.8;;;;;;;7.8;91.3;98080;;;;
2023/02/21 06:27:45;;;;;;;7.2;4.3;;;;;;;7.9;91.2;98080;;;;
2023/02/21 06:38:45;;;;;;;7.2;4.3;;;;;;;8;90.9;98080;;;;
2023/02/21 06:49:45;;;;;;;7.2;4.3;;;;;;;8;90.8;98090;;;;
2023/02/21 07:00:45;;;;;;;9.7;5.2;;;;;;;8.1;90.3;98100;;;;
2023/02/21 07:11:45;;;;;;;9.7;5.2;;;;;;;8.1;90.6;98100;;;;
2023/02/21 07:21:45;;;;;;;9.7;5.2;;;;;;;8.2;90.2;98120;;;;
2023/02/21 07:31:45;;;;;;;9;4.8;;;;;;;8.3;89.2;98110;;;;
2023/02/21 07:41:45;;;;;;;9;4.8;;;;;;;8.4;88.6;98150;;;;
2023/02/21 07:51:45;;;;;;;9;4.8;;;;;;;8.4;88.4;98110;;;;
2023/02/21 08:01:46;;;;;;;7;3.9;;;;;;;8.6;87.1;98120;;;;
2023/02/21 08:12:45;;;;;;;7;3.9;;;;;;;8.8;85.9;98120;;;;
2023/02/21 08:22:45;;;;;;;7;3.9;;;;;;;8.9;85.3;98130;;;;
2023/02/21 08:32:47;;;;;;;5.6;2.9;;;;;;;9.2;83.2;98130;;;;
2023/02/21 08:42:45;;;;;;;5.6;2.9;;;;;;;9.2;84.7;98160;;;;
2023/02/21 08:53:45;;;;;;;5.6;2.9;;;;;;;9.5;83.4;98170;;;;
2023/02/21 09:04:45;;;;;;;6.7;3.4;;;;;;;9.5;82.5;98160;;;;
2023/02/21 09:14:45;;;;;;;6.7;3.4;;;;;;;9.6;83.3;98170;;;;
2023/02/21 09:24:46;;;;;;;7.4;3.7;;;;;;;9.4;84.6;98180;;;;
2023/02/21 09:34:45;;;;;;;7.4;3.7;;;;;;;9.4;85.5;98200;;;;
2023/02/21 09:44:45;;;;;;;7.4;3.7;;;;;;;9.6;84.6;98200;;;;
2023/02/21 09:54:45;;;;;;;6.1;3.8;;;;;;;9.5;86;98230;;;;
2023/02/21 10:04:45;;;;;;;6.1;3.8;;;;;;;9.4;85.5;98220;;;;
2023/02/21 10:15:45;;;;;;;6.1;3.8;;;;;;;9.7;84.6;98210;;;;
2023/02/21 10:25:45;;;;;;;10.9;5.1;;;;;;;10.1;83.1;98210;;;;
2023/02/21 10:35:45;;;;;;;10.9;5.1;;;;;;;10.5;81.9;98210;;;;
2023/02/21 10:45:45;;;;;;;10.9;5.1;;;;;;;10.8;80.9;98220;;;;
2023/02/21 10:55:46;;;;;;;8.4;5.3;;;;;;;10.8;81.4;98220;;;;
2023/02/21 11:05:46;;;;;;;8.4;5.3;;;;;;;10.8;80.8;98210;;;;
2023/02/21 11:16:46;;;;;;;8.4;5.3;;;;;;;11.2;80.4;98210;;;;
2023/02/21 11:26:45;;;;;;;6.5;4.2;;;;;;;11.1;79.6;98210;;;;
2023/02/21 11:36:45;;;;;;;6.5;4.2;;;;;;;10.9;80.6;98230;;;;
2023/02/21 11:46:45;;;;;;;6.5;4.2;;;;;;;10.4;81.9;98250;;;;
2023/02/21 11:57:45;;;;;;;6.2;2.6;;;;;;;10.5;81.4;98230;;;;
2023/02/21 12:07:45;;;;;;;6.2;2.6;;;;;;;10.5;82.3;98240;;;;
2023/02/21 12:17:45;;;;;;;6.2;2.6;;;;;;;10.3;82.6;98250;;;;
2023/02/21 12:28:45;;;;;;;9.4;3.7;;;;;;;10.1;84.9;98250;;;;
2023/02/21 12:38:45;;;;;;;9.4;3.7;;;;;;;10.3;84.9;98260;;;;
2023/02/21 12:49:45;;;;;;;9.4;3.7;;;;;;;10;84;98250;;;;
2023/02/21 12:59:45;;;;;;;6.7;3.1;;;;;;;10.1;82.6;98250;;;;
2023/02/21 13:09:45;;;;;;;6.7;3.1;;;;;;;10.5;79.4;98240;;;;
2023/02/21 13:19:45;;;;;;;6.7;3.1;;;;;;;10.8;74.6;98240;;;;
2023/02/21 13:30:45;;;;;;;4.5;2.4;;;;;;;10.9;70.8;98240;;;;
2023/02/21 13:40:46;;;;;;;4.5;2.4;;;;;;;10.7;70.8;98240;;;;
2023/02/21 13:50:45;;;;;;;4.5;2.4;;;;;;;10.4;73.6;98250;;;;
2023/02/21 14:01:46;;;;;;;9.6;4;;;;;;;10.6;76.9;98250;;;;
2023/02/21 14:11:45;;;;;;;9.6;4;;;;;;;11;75.2;98240;;;;
2023/02/21 14:22:45;;;;;;;9.6;4;;;;;;;11.3;72.1;98250;;;;
2023/02/21 14:33:45;;;;;;;4.8;2.3;;;;;;;10.9;71.3;98270;;;;
2023/02/21 14:43:45;;;;;;;4.8;2.3;;;;;;;10.7;73.4;98270;;;;
2023/02/21 14:53:45;;;;;;;4.8;2.3;;;;;;;10.7;73.2;98280;;;;
2023/02/21 15:04:46;;;;;;;5.8;2.3;;;;;;;10.8;73.8;98280;;;;
2023/02/21 15:15:45;;;;;;;5.8;2.3;;;;;;;10.9;75.4;98290;;;;
2023/02/21 15:26:45;;;;;;;5.4;3.2;;;;;;;10.8;76.2;98300;;;;
2023/02/21 15:37:45;;;;;;;5.4;3.2;;;;;;;10.2;77.1;98310;;;;
2023/02/21 15:47:45;;;;;;;5.4;3.2;;;;;;;9.9;78.1;98320;;;;
2023/02/21 15:58:46;;;;;;;8.3;4.3;;;;;;;9.8;78.3;98330;;;;
2023/02/21 16:09:45;;;;;;;8.3;4.3;;;;;;;9.6;79;98350;;;;
2023/02/21 16:19:45;;;;;;;8.3;4.3;;;;;;;9.4;78.7;98350;;;;
2023/02/21 16:29:45;;;;;;;9.9;5.1;;;;;;;9.3;78.7;98360;;;;
2023/02/21 16:40:45;;;;;;;9.9;5.1;;;;;;;9.5;78.8;98370;;;;
2023/02/21 16:50:46;;;;;;;9.9;5.1;;;;;;;9.5;79.1;98370;;;;
2023/02/21 17:00:46;;;;;;;10.4;6.6;;;;;;;9.6;79.6;98380;;;;
2023/02/21 17:10:45;;;;;;;10.4;6.6;;;;;;;9.5;79.4;98400;;;;
2023/02/21 17:20:45;;;;;;;10.4;6.6;;;;;;;9.2;79.7;98400;;;;
2023/02/21 17:30:46;;;;;;;16.6;8.8;;;;;;;9.2;79.9;98400;;;;
2023/02/21 17:40:45;;;;;;;16.6;8.8;;;;;;;9.2;79.5;98410;;;;
2023/02/21 17:51:45;;;;;;;16.6;8.8;;;;;;;9;80.3;98420;;;;
2023/02/21 18:01:45;;;;;;;16.1;9.2;;;;;;;9.1;80.5;98420;;;;
2023/02/21 18:12:45;;;;;;;16.1;9.2;;;;;;;9.2;80.8;98420;;;;
2023/02/21 18:22:45;;;;;;;16.1;9.2;;;;;;;9.2;81.9;98430;;;;
2023/02/21 18:32:45;;;;;;;18.6;8.4;;;;;;;9.2;82.1;98440;;;;
2023/02/21 18:43:45;;;;;;;18.6;8.4;;;;;;;9.1;82.4;98460;;;;
2023/02/21 18:53:46;;;;;;;13.4;9;;;;;;;9.1;82.4;98470;;;;
2023/02/21 19:04:45;;;;;;;13.4;9;;;;;;;9.1;82.5;98490;;;;
2023/02/21 19:15:46;;;;;;;13.4;9;;;;;;;9;80.2;98510;;;;
2023/02/21 19:25:45;;;;;;;11.8;8.6;;;;;;;8.7;78;98530;;;;
2023/02/21 19:36:45;;;;;;;11.8;8.6;;;;;;;8.5;75.5;98550;;;;
2023/02/21 19:47:45;;;;;;;11.8;8.6;;;;;;;8.4;76.4;98560;;;;
2023/02/21 19:58:46;;;;;;;11.4;6.6;;;;;;;8.2;77.1;98570;;;;
2023/02/21 20:08:47;;;;;;;11.4;6.6;;;;;;;8;76.2;98590;;;;
2023/02/21 20:18:45;;;;;;;11.4;6.6;;;;;;;7.9;75.5;98590;;;;
2023/02/21 20:29:45;;;;;;;12.9;6.5;;;;;;;7.8;75.4;98620;;;;
2023/02/21 20:39:45;;;;;;;12.9;6.5;;;;;;;7.4;75.5;98630;;;;
2023/02/21 20:49:45;;;;;;;12.9;6.5;;;;;;;7;75.4;98640;;;;
2023/02/21 21:00:46;;;;;;;12.4;6.1;;;;;;;6.8;76;98640;;;;
2023/02/21 21:10:47;;;;;;;12.4;6.1;;;;;;;6.6;76.3;98640;;;;
2023/02/21 21:20:46;;;;;;;12.4;6.1;;;;;;;6.5;75.8;98650;;;;
2023/02/21 21:31:46;;;;;;;13;7.5;;;;;;;6.4;75.6;98660;;;;
2023/02/21 21:41:45;;;;;;;13;7.5;;;;;;;6.3;75.9;98660;;;;
2023/02/21 21:51:46;;;;;;;13;7.5;;;;;;;6.1;76.2;98670;;;;
2023/02/21 22:02:46;;;;;;;13.8;8.4;;;;;;;6.1;76.5;98670;;;;
2023/02/21 22:13:46;;;;;;;13.8;8.4;;;;;;;6.1;76.4;98680;;;;
2023/02/21 22:23:47;;;;;;;16.9;8;;;;;;;6.1;76.4;98680;;;;
2023/02/21 22:33:46;;;;;;;16.9;8;;;;;;;6;76.7;98680;;;;
2023/02/21 22:44:46;;;;;;;16.9;8;;;;;;;6;76.7;98690;;;;
2023/02/21 22:55:48;;;;;;;16.4;8;;;;;;;6;75.9;98690;;;;
2023/02/21 23:05:46;;;;;;;16.4;8;;;;;;;6;76.4;98700;;;;
2023/02/21 23:16:46;;;;;;;16.4;8;;;;;;;6;76.8;98710;;;;
2023/02/21 23:27:46;;;;;;;18.4;8.4;;;;;;;6;77.1;98710;;;;
2023/02/21 23:38:46;;;;;;;18.4;8.4;;;;;;;6;77.3;98730;;;;
2023/02/21 23:48:46;;;;;;;18.4;8.4;;;;;;;5.9;77.4;98730;;;;
2023/02/21 23:59:46;;;;;;;16.5;7.5;;;;;;;5.8;77.7;98730;;;;
